sensor_id;sensor_type;location;lat;lon;timestamp;pressure;altitude;pressure_sealevel;temperature;humidity
75231;BME280;63814;50.118;8.714;2022-11-30T00:01:08;100706.09;;;6.41;87.16
75231;BME280;63814;50.118;8.714;2022-11-30T00:03:36;100706.81;;;6.47;87.43
75231;BME280;63814;50.118;8.714;2022-11-30T00:06:03;100710.25;;;6.47;87.75
75231;BME280;63814;50.118;8.714;2022-11-30T00:08:30;100701.59;;;6.47;88.07
75231;BME280;63814;50.118;8.714;2022-11-30T00:10:56;100713.72;;;6.48;87.74
75231;BME280;63814;50.118;8.714;2022-11-30T00:13:22;100706.84;;;6.45;87.19
75231;BME280;63814;50.118;8.714;2022-11-30T00:15:49;100700.72;;;6.46;87.65
75231;BME280;63814;50.118;8.714;2022-11-30T00:18:15;100698.00;;;6.49;87.70
75231;BME280;63814;50.118;8.714;2022-11-30T00:20:43;100708.50;;;6.48;87.24
75231;BME280;63814;50.118;8.714;2022-11-30T00:23:10;100705.94;;;6.46;87.78
75231;BME280;63814;50.118;8.714;2022-11-30T00:25:36;100707.69;;;6.46;88.07
75231;BME280;63814;50.118;8.714;2022-11-30T00:28:03;100704.25;;;6.45;87.66
75231;BME280;63814;50.118;8.714;2022-11-30T00:30:30;100704.19;;;6.47;87.48
75231;BME280;63814;50.118;8.714;2022-11-30T00:32:56;100699.00;;;6.47;87.97
75231;BME280;63814;50.118;8.714;2022-11-30T00:35:23;100701.59;;;6.47;88.00
75231;BME280;63814;50.118;8.714;2022-11-30T00:37:51;100700.72;;;6.46;88.16
75231;BME280;63814;50.118;8.714;2022-11-30T00:40:17;100699.84;;;6.47;88.35
75231;BME280;63814;50.118;8.714;2022-11-30T00:42:44;100699.78;;;6.49;87.91
75231;BME280;63814;50.118;8.714;2022-11-30T00:45:10;100706.69;;;6.50;88.00
75231;BME280;63814;50.118;8.714;2022-11-30T00:47:37;100697.19;;;6.49;88.24
75231;BME280;63814;50.118;8.714;2022-11-30T00:50:04;100695.47;;;6.48;87.43
75231;BME280;63814;50.118;8.714;2022-11-30T00:52:31;100703.97;;;6.53;87.64
75231;BME280;63814;50.118;8.714;2022-11-30T00:54:59;100694.41;;;6.53;87.92
75231;BME280;63814;50.118;8.714;2022-11-30T00:57:25;100688.41;;;6.51;87.37
75231;BME280;63814;50.118;8.714;2022-11-30T00:59:51;100694.53;;;6.50;88.09
75231;BME280;63814;50.118;8.714;2022-11-30T01:02:18;100688.22;;;6.58;87.11
75231;BME280;63814;50.118;8.714;2022-11-30T01:04:44;100689.97;;;6.57;87.18
75231;BME280;63814;50.118;8.714;2022-11-30T01:07:11;100641.53;;;6.24;87.37
75231;BME280;63814;50.118;8.714;2022-11-30T01:09:37;100679.03;;;6.46;87.47
75231;BME280;63814;50.118;8.714;2022-11-30T01:12:05;100690.34;;;6.45;87.12
75231;BME280;63814;50.118;8.714;2022-11-30T01:14:32;100692.69;;;6.54;86.42
75231;BME280;63814;50.118;8.714;2022-11-30T01:16:58;100702.28;;;6.52;86.71
75231;BME280;63814;50.118;8.714;2022-11-30T01:19:25;100699.66;;;6.52;85.82
75231;BME280;63814;50.118;8.714;2022-11-30T01:21:51;100684.47;;;6.39;86.43
75231;BME280;63814;50.118;8.714;2022-11-30T01:24:18;100701.53;;;6.48;86.02
75231;BME280;63814;50.118;8.714;2022-11-30T01:26:44;100698.16;;;6.45;87.09
75231;BME280;63814;50.118;8.714;2022-11-30T01:29:12;100695.56;;;6.45;87.31
75231;BME280;63814;50.118;8.714;2022-11-30T01:31:39;100687.88;;;6.41;87.37
75231;BME280;63814;50.118;8.714;2022-11-30T01:34:05;100693.16;;;6.38;88.04
75231;BME280;63814;50.118;8.714;2022-11-30T01:36:31;100694.97;;;6.36;87.63
75231;BME280;63814;50.118;8.714;2022-11-30T01:38:58;100700.94;;;6.40;87.98
75231;BME280;63814;50.118;8.714;2022-11-30T01:41:27;100702.59;;;6.43;86.52
75231;BME280;63814;50.118;8.714;2022-11-30T01:43:55;100638.84;;;5.99;87.11
75231;BME280;63814;50.118;8.714;2022-11-30T01:46:27;100704.28;;;6.44;86.55
75231;BME280;63814;50.118;8.714;2022-11-30T01:49:12;100700.09;;;6.39;86.73
75231;BME280;63814;50.118;8.714;2022-11-30T01:51:43;100706.28;;;6.35;87.28
75231;BME280;63814;50.118;8.714;2022-11-30T01:54:14;100702.81;;;6.35;87.25
75231;BME280;63814;50.118;8.714;2022-11-30T01:56:44;100716.72;;;6.35;87.47
75231;BME280;63814;50.118;8.714;2022-11-30T01:59:13;100642.34;;;5.98;87.45
75231;BME280;63814;50.118;8.714;2022-11-30T02:01:42;100705.44;;;6.35;87.05
75231;BME280;63814;50.118;8.714;2022-11-30T02:04:11;100662.13;;;6.05;87.52
75231;BME280;63814;50.118;8.714;2022-11-30T02:06:40;100709.47;;;6.45;86.87
75231;BME280;63814;50.118;8.714;2022-11-30T02:09:07;100704.28;;;6.44;86.80
75231;BME280;63814;50.118;8.714;2022-11-30T02:11:33;100709.63;;;6.40;86.43
75231;BME280;63814;50.118;8.714;2022-11-30T02:14:16;100719.31;;;6.35;86.86
75231;BME280;63814;50.118;8.714;2022-11-30T02:16:53;100717.69;;;6.31;87.06
75231;BME280;63814;50.118;8.714;2022-11-30T02:19:51;100706.44;;;6.31;88.00
75231;BME280;63814;50.118;8.714;2022-11-30T02:22:36;100717.59;;;6.36;87.70
75231;BME280;63814;50.118;8.714;2022-11-30T02:25:07;100712.41;;;6.34;88.11
75231;BME280;63814;50.118;8.714;2022-11-30T02:27:49;100710.53;;;6.39;88.19
75231;BME280;63814;50.118;8.714;2022-11-30T02:30:23;100707.09;;;6.37;88.07
75231;BME280;63814;50.118;8.714;2022-11-30T02:32:52;100712.31;;;6.37;88.45
75231;BME280;63814;50.118;8.714;2022-11-30T02:35:25;100712.31;;;6.37;87.99
75231;BME280;63814;50.118;8.714;2022-11-30T02:37:53;100713.25;;;6.35;88.14
75231;BME280;63814;50.118;8.714;2022-11-30T02:40:22;100699.53;;;6.30;87.86
75231;BME280;63814;50.118;8.714;2022-11-30T02:42:50;100715.06;;;6.33;87.91
75231;BME280;63814;50.118;8.714;2022-11-30T02:45:19;100714.22;;;6.32;88.18
75231;BME280;63814;50.118;8.714;2022-11-30T02:47:54;100714.22;;;6.32;87.77
75231;BME280;63814;50.118;8.714;2022-11-30T02:50:27;100705.59;;;6.30;88.49
75231;BME280;63814;50.118;8.714;2022-11-30T02:52:56;100697.09;;;6.25;88.86
75231;BME280;63814;50.118;8.714;2022-11-30T02:55:23;100709.00;;;6.32;88.73
75231;BME280;63814;50.118;8.714;2022-11-30T02:57:49;100716.88;;;6.31;89.02
75231;BME280;63814;50.118;8.714;2022-11-30T03:00:16;100718.59;;;6.30;88.72
75231;BME280;63814;50.118;8.714;2022-11-30T03:02:43;100718.69;;;6.29;89.05
75231;BME280;63814;50.118;8.714;2022-11-30T03:05:11;100720.31;;;6.31;89.31
75231;BME280;63814;50.118;8.714;2022-11-30T03:07:37;100723.81;;;6.30;88.70
75231;BME280;63814;50.118;8.714;2022-11-30T03:10:05;100719.50;;;6.29;89.18
75231;BME280;63814;50.118;8.714;2022-11-30T03:12:32;100722.06;;;6.31;89.08
75231;BME280;63814;50.118;8.714;2022-11-30T03:14:58;100724.72;;;6.29;89.52
75231;BME280;63814;50.118;8.714;2022-11-30T03:17:25;100727.25;;;6.32;89.26
75231;BME280;63814;50.118;8.714;2022-11-30T03:19:51;100731.63;;;6.30;89.39
75231;BME280;63814;50.118;8.714;2022-11-30T03:22:19;100732.38;;;6.34;89.64
75231;BME280;63814;50.118;8.714;2022-11-30T03:24:46;100731.63;;;6.30;89.49
75231;BME280;63814;50.118;8.714;2022-11-30T03:27:12;100736.00;;;6.30;89.19
75231;BME280;63814;50.118;8.714;2022-11-30T03:29:39;100733.28;;;6.33;88.90
75231;BME280;63814;50.118;8.714;2022-11-30T03:32:05;100735.91;;;6.33;89.12
75231;BME280;63814;50.118;8.714;2022-11-30T03:34:32;100736.84;;;6.30;89.84
75231;BME280;63814;50.118;8.714;2022-11-30T03:36:59;100733.31;;;6.31;89.92
75231;BME280;63814;50.118;8.714;2022-11-30T03:39:26;100734.19;;;6.32;89.40
75231;BME280;63814;50.118;8.714;2022-11-30T03:41:53;100735.06;;;6.32;89.75
75231;BME280;63814;50.118;8.714;2022-11-30T03:44:20;100729.75;;;6.35;89.39
75231;BME280;63814;50.118;8.714;2022-11-30T03:46:46;100722.03;;;6.32;90.11
75231;BME280;63814;50.118;8.714;2022-11-30T03:49:13;100728.03;;;6.34;90.09
75231;BME280;63814;50.118;8.714;2022-11-30T03:51:39;100732.44;;;6.32;89.47
75231;BME280;63814;50.118;8.714;2022-11-30T03:54:06;100730.59;;;6.36;89.75
75231;BME280;63814;50.118;8.714;2022-11-30T03:56:33;100736.69;;;6.35;89.68
75231;BME280;63814;50.118;8.714;2022-11-30T03:59:00;100734.16;;;6.33;89.22
75231;BME280;63814;50.118;8.714;2022-11-30T04:01:26;100711.88;;;6.23;89.83
75231;BME280;63814;50.118;8.714;2022-11-30T04:03:53;100735.84;;;6.34;89.53
75231;BME280;63814;50.118;8.714;2022-11-30T04:06:20;100736.69;;;6.35;89.68
75231;BME280;63814;50.118;8.714;2022-11-30T04:08:47;100735.19;;;6.27;89.83
75231;BME280;63814;50.118;8.714;2022-11-30T04:11:14;100727.28;;;6.31;89.41
75231;BME280;63814;50.118;8.714;2022-11-30T04:13:42;100740.28;;;6.32;89.76
75231;BME280;63814;50.118;8.714;2022-11-30T04:16:09;100735.00;;;6.34;89.33
75231;BME280;63814;50.118;8.714;2022-11-30T04:18:36;100730.72;;;6.31;89.81
75231;BME280;63814;50.118;8.714;2022-11-30T04:21:04;100741.84;;;6.36;89.64
75231;BME280;63814;50.118;8.714;2022-11-30T04:23:32;100742.66;;;6.38;89.78
75231;BME280;63814;50.118;8.714;2022-11-30T04:25:59;100748.75;;;6.37;89.29
75231;BME280;63814;50.118;8.714;2022-11-30T04:28:25;100735.09;;;6.31;89.64
75231;BME280;63814;50.118;8.714;2022-11-30T04:30:53;100746.16;;;6.37;89.49
75231;BME280;63814;50.118;8.714;2022-11-30T04:33:20;100750.34;;;6.43;89.42
75231;BME280;63814;50.118;8.714;2022-11-30T04:35:48;100739.94;;;6.43;89.08
75231;BME280;63814;50.118;8.714;2022-11-30T04:38:15;100741.66;;;6.43;88.89
75231;BME280;63814;50.118;8.714;2022-11-30T04:40:42;100746.88;;;6.43;89.79
75231;BME280;63814;50.118;8.714;2022-11-30T04:43:10;100728.03;;;6.34;89.76
75231;BME280;63814;50.118;8.714;2022-11-30T04:45:37;100737.50;;;6.37;89.15
75231;BME280;63814;50.118;8.714;2022-11-30T04:48:06;100740.94;;;6.37;89.34
75231;BME280;63814;50.118;8.714;2022-11-30T04:50:33;100686.34;;;6.07;89.38
75231;BME280;63814;50.118;8.714;2022-11-30T04:53:00;100741.66;;;6.43;88.98
75231;BME280;63814;50.118;8.714;2022-11-30T04:55:27;100743.38;;;6.44;89.50
75231;BME280;63814;50.118;8.714;2022-11-30T04:57:54;100742.53;;;6.43;89.21
75231;BME280;63814;50.118;8.714;2022-11-30T05:00:21;100750.34;;;6.43;89.85
75231;BME280;63814;50.118;8.714;2022-11-30T05:02:47;100740.75;;;6.44;89.74
75231;BME280;63814;50.118;8.714;2022-11-30T05:05:15;100735.59;;;6.42;89.27
75231;BME280;63814;50.118;8.714;2022-11-30T05:07:42;100740.72;;;6.45;89.47
75231;BME280;63814;50.118;8.714;2022-11-30T05:10:09;100745.06;;;6.45;89.72
75231;BME280;63814;50.118;8.714;2022-11-30T05:12:36;100746.88;;;6.43;89.97
75231;BME280;63814;50.118;8.714;2022-11-30T05:15:03;100751.97;;;6.46;89.23
75231;BME280;63814;50.118;8.714;2022-11-30T05:17:29;100745.97;;;6.44;89.35
75231;BME280;63814;50.118;8.714;2022-11-30T05:19:56;100749.44;;;6.44;89.48
75231;BME280;63814;50.118;8.714;2022-11-30T05:22:23;100744.50;;;6.35;89.92
75231;BME280;63814;50.118;8.714;2022-11-30T05:24:50;100753.91;;;6.40;90.36
75231;BME280;63814;50.118;8.714;2022-11-30T05:27:16;100754.69;;;6.43;89.61
75231;BME280;63814;50.118;8.714;2022-11-30T05:29:43;100748.75;;;6.37;89.67
75231;BME280;63814;50.118;8.714;2022-11-30T05:32:09;100752.88;;;6.45;89.69
75231;BME280;63814;50.118;8.714;2022-11-30T05:34:36;100751.13;;;6.45;89.49
75231;BME280;63814;50.118;8.714;2022-11-30T05:37:02;100763.22;;;6.48;90.07
75231;BME280;63814;50.118;8.714;2022-11-30T05:39:30;100765.81;;;6.48;89.66
75231;BME280;63814;50.118;8.714;2022-11-30T05:41:56;100766.72;;;6.47;89.82
75231;BME280;63814;50.118;8.714;2022-11-30T05:44:23;100759.19;;;6.37;89.77
75231;BME280;63814;50.118;8.714;2022-11-30T05:46:49;100765.00;;;6.46;89.82
75231;BME280;63814;50.118;8.714;2022-11-30T05:49:16;100755.47;;;6.45;89.95
75231;BME280;63814;50.118;8.714;2022-11-30T05:51:42;100762.50;;;6.43;89.75
75231;BME280;63814;50.118;8.714;2022-11-30T05:54:09;100761.59;;;6.44;89.71
75231;BME280;63814;50.118;8.714;2022-11-30T05:56:37;100763.41;;;6.41;89.49
75231;BME280;63814;50.118;8.714;2022-11-30T05:59:03;100770.28;;;6.44;89.82
75231;BME280;63814;50.118;8.714;2022-11-30T06:01:30;100770.16;;;6.47;90.21
75231;BME280;63814;50.118;8.714;2022-11-30T06:03:56;100723.44;;;6.14;90.24
75231;BME280;63814;50.118;8.714;2022-11-30T06:06:23;100769.34;;;6.47;89.53
75231;BME280;63814;50.118;8.714;2022-11-30T06:08:49;100767.53;;;6.49;89.42
75231;BME280;63814;50.118;8.714;2022-11-30T06:11:16;100753.00;;;6.41;90.05
75231;BME280;63814;50.118;8.714;2022-11-30T06:13:44;100772.75;;;6.49;89.76
75231;BME280;63814;50.118;8.714;2022-11-30T06:16:10;100765.75;;;6.49;89.97
75231;BME280;63814;50.118;8.714;2022-11-30T06:18:37;100773.56;;;6.49;89.38
75231;BME280;63814;50.118;8.714;2022-11-30T06:21:05;100771.81;;;6.50;89.71
75231;BME280;63814;50.118;8.714;2022-11-30T06:23:32;100773.66;;;6.48;89.67
75231;BME280;63814;50.118;8.714;2022-11-30T06:26:02;100770.97;;;6.49;89.91
75231;BME280;63814;50.118;8.714;2022-11-30T06:28:29;100781.34;;;6.51;90.18
75231;BME280;63814;50.118;8.714;2022-11-30T06:30:58;100777.94;;;6.49;89.71
75231;BME280;63814;50.118;8.714;2022-11-30T06:33:24;100774.63;;;6.44;89.54
75231;BME280;63814;50.118;8.714;2022-11-30T06:35:51;100785.75;;;6.49;90.07
75231;BME280;63814;50.118;8.714;2022-11-30T06:38:17;100788.41;;;6.47;89.58
75231;BME280;63814;50.118;8.714;2022-11-30T06:40:44;100791.88;;;6.48;89.82
75231;BME280;63814;50.118;8.714;2022-11-30T06:43:11;100781.53;;;6.45;90.47
75231;BME280;63814;50.118;8.714;2022-11-30T06:45:37;100792.63;;;6.51;90.43
75231;BME280;63814;50.118;8.714;2022-11-30T06:48:05;100790.19;;;6.47;90.67
75231;BME280;63814;50.118;8.714;2022-11-30T06:50:31;100790.97;;;6.49;89.85
75231;BME280;63814;50.118;8.714;2022-11-30T06:52:58;100787.56;;;6.47;89.79
75231;BME280;63814;50.118;8.714;2022-11-30T06:55:24;100796.16;;;6.50;90.02
75231;BME280;63814;50.118;8.714;2022-11-30T06:57:51;100796.19;;;6.49;90.11
75231;BME280;63814;50.118;8.714;2022-11-30T07:00:18;100794.47;;;6.48;89.98
75231;BME280;63814;50.118;8.714;2022-11-30T07:02:44;100789.31;;;6.46;90.11
75231;BME280;63814;50.118;8.714;2022-11-30T07:05:12;100790.25;;;6.44;90.09
75231;BME280;63814;50.118;8.714;2022-11-30T07:07:38;100796.25;;;6.46;90.30
75231;BME280;63814;50.118;8.714;2022-11-30T07:10:06;100798.88;;;6.46;90.74
75231;BME280;63814;50.118;8.714;2022-11-30T07:12:33;100803.22;;;6.47;90.62
75231;BME280;63814;50.118;8.714;2022-11-30T07:15:00;100801.47;;;6.46;90.89
75231;BME280;63814;50.118;8.714;2022-11-30T07:17:26;100809.22;;;6.49;90.93
75231;BME280;63814;50.118;8.714;2022-11-30T07:19:53;100806.50;;;6.52;90.95
75231;BME280;63814;50.118;8.714;2022-11-30T07:22:20;100803.81;;;6.55;90.23
75231;BME280;63814;50.118;8.714;2022-11-30T07:24:47;100750.94;;;6.23;90.76
75231;BME280;63814;50.118;8.714;2022-11-30T07:27:31;100800.31;;;6.56;90.55
75231;BME280;63814;50.118;8.714;2022-11-30T07:29:58;100804.66;;;6.55;90.46
75231;BME280;63814;50.118;8.714;2022-11-30T07:32:24;100803.69;;;6.58;90.25
75231;BME280;63814;50.118;8.714;2022-11-30T07:34:51;100795.84;;;6.60;90.32
75231;BME280;63814;50.118;8.714;2022-11-30T07:37:17;100800.09;;;6.62;90.38
75231;BME280;63814;50.118;8.714;2022-11-30T07:39:45;100794.91;;;6.62;90.67
75231;BME280;63814;50.118;8.714;2022-11-30T07:42:12;100807.84;;;6.64;90.07
75231;BME280;63814;50.118;8.714;2022-11-30T07:44:38;100800.78;;;6.67;89.98
75231;BME280;63814;50.118;8.714;2022-11-30T07:47:05;100803.56;;;6.63;90.64
75231;BME280;63814;50.118;8.714;2022-11-30T07:49:32;100807.09;;;6.60;89.87
75231;BME280;63814;50.118;8.714;2022-11-30T07:51:58;100813.94;;;6.64;90.26
75231;BME280;63814;50.118;8.714;2022-11-30T07:54:25;100808.75;;;6.63;90.70
75231;BME280;63814;50.118;8.714;2022-11-30T07:56:53;100808.06;;;6.58;90.20
75231;BME280;63814;50.118;8.714;2022-11-30T07:59:19;100815.75;;;6.62;90.22
75231;BME280;63814;50.118;8.714;2022-11-30T08:01:46;100816.69;;;6.60;90.39
75231;BME280;63814;50.118;8.714;2022-11-30T08:04:12;100815.63;;;6.65;90.10
75231;BME280;63814;50.118;8.714;2022-11-30T08:06:39;100818.25;;;6.65;90.23
75231;BME280;63814;50.118;8.714;2022-11-30T08:09:05;100821.72;;;6.66;90.65
75231;BME280;63814;50.118;8.714;2022-11-30T08:11:33;100817.44;;;6.63;90.64
75231;BME280;63814;50.118;8.714;2022-11-30T08:14:03;100820.00;;;6.65;90.51
75231;BME280;63814;50.118;8.714;2022-11-30T08:16:34;100814.81;;;6.65;90.66
75231;BME280;63814;50.118;8.714;2022-11-30T08:19:00;100824.25;;;6.67;90.62
75231;BME280;63814;50.118;8.714;2022-11-30T08:21:27;100766.22;;;6.35;90.99
75231;BME280;63814;50.118;8.714;2022-11-30T08:23:56;100824.06;;;6.74;90.58
75231;BME280;63814;50.118;8.714;2022-11-30T08:26:24;100788.22;;;6.53;89.98
75231;BME280;63814;50.118;8.714;2022-11-30T08:28:53;100814.66;;;6.70;90.21
75231;BME280;63814;50.118;8.714;2022-11-30T08:31:23;100818.91;;;6.72;90.14
75231;BME280;63814;50.118;8.714;2022-11-30T08:33:54;100820.53;;;6.75;90.52
75231;BME280;63814;50.118;8.714;2022-11-30T08:36:22;100818.84;;;6.74;90.25
75231;BME280;63814;50.118;8.714;2022-11-30T08:38:48;100727.84;;;6.12;89.95
75231;BME280;63814;50.118;8.714;2022-11-30T08:41:17;100824.81;;;6.77;90.05
75231;BME280;63814;50.118;8.714;2022-11-30T08:43:44;100813.63;;;6.74;90.32
75231;BME280;63814;50.118;8.714;2022-11-30T08:46:12;100827.06;;;6.88;89.44
75231;BME280;63814;50.118;8.714;2022-11-30T08:48:40;100829.00;;;6.83;90.03
75231;BME280;63814;50.118;8.714;2022-11-30T08:51:09;100824.53;;;6.87;89.96
75231;BME280;63814;50.118;8.714;2022-11-30T08:53:36;100829.00;;;6.83;89.12
75231;BME280;63814;50.118;8.714;2022-11-30T08:56:05;100829.97;;;6.79;89.54
75231;BME280;63814;50.118;8.714;2022-11-30T08:58:34;100834.41;;;6.77;89.74
75231;BME280;63814;50.118;8.714;2022-11-30T09:01:05;100842.06;;;6.81;89.91
75231;BME280;63814;50.118;8.714;2022-11-30T09:03:31;100844.63;;;6.83;89.87
75231;BME280;63814;50.118;8.714;2022-11-30T09:06:03;100838.41;;;6.87;89.48
75231;BME280;63814;50.118;8.714;2022-11-30T09:08:31;100838.50;;;6.84;90.17
75231;BME280;63814;50.118;8.714;2022-11-30T09:10:58;100848.03;;;6.85;89.57
75231;BME280;63814;50.118;8.714;2022-11-30T09:13:25;100847.09;;;6.88;89.74
75231;BME280;63814;50.118;8.714;2022-11-30T09:15:53;100849.53;;;6.92;90.03
75231;BME280;63814;50.118;8.714;2022-11-30T09:18:19;100846.81;;;6.95;89.94
75231;BME280;63814;50.118;8.714;2022-11-30T09:20:46;100841.56;;;6.97;89.70
75231;BME280;63814;50.118;8.714;2022-11-30T09:23:14;100847.34;;;7.07;89.30
75231;BME280;63814;50.118;8.714;2022-11-30T09:25:40;100850.56;;;7.14;89.25
75231;BME280;63814;50.118;8.714;2022-11-30T09:28:07;100845.31;;;7.15;89.14
75231;BME280;63814;50.118;8.714;2022-11-30T09:30:33;100846.94;;;7.19;88.42
75231;BME280;63814;50.118;8.714;2022-11-30T09:33:00;100855.66;;;7.18;88.29
75231;BME280;63814;50.118;8.714;2022-11-30T09:35:26;100853.81;;;7.22;88.25
75231;BME280;63814;50.118;8.714;2022-11-30T09:37:52;100840.84;;;7.19;88.41
75231;BME280;63814;50.118;8.714;2022-11-30T09:40:21;100854.75;;;7.19;89.08
75231;BME280;63814;50.118;8.714;2022-11-30T09:42:56;100850.22;;;7.25;88.63
75231;BME280;63814;50.118;8.714;2022-11-30T09:45:29;100801.66;;;6.95;88.39
75231;BME280;63814;50.118;8.714;2022-11-30T09:48:07;100850.84;;;7.33;89.08
75231;BME280;63814;50.118;8.714;2022-11-30T09:50:41;100849.72;;;7.40;89.57
75231;BME280;63814;50.118;8.714;2022-11-30T09:53:13;100848.00;;;7.39;89.18
75231;BME280;63814;50.118;8.714;2022-11-30T09:55:42;100845.50;;;7.36;88.60
75231;BME280;63814;50.118;8.714;2022-11-30T09:58:20;100850.94;;;7.30;88.13
75231;BME280;63814;50.118;8.714;2022-11-30T10:00:48;100855.44;;;7.25;88.95
75231;BME280;63814;50.118;8.714;2022-11-30T10:03:15;100852.81;;;7.25;88.83
75231;BME280;63814;50.118;8.714;2022-11-30T10:05:46;100840.09;;;7.15;88.65
75231;BME280;63814;50.118;8.714;2022-11-30T10:08:35;100855.22;;;7.31;88.15
75231;BME280;63814;50.118;8.714;2022-11-30T10:11:33;100850.69;;;7.38;88.08
75231;BME280;63814;50.118;8.714;2022-11-30T10:14:14;100850.09;;;7.55;86.98
75231;BME280;63814;50.118;8.714;2022-11-30T10:16:49;100840.66;;;7.50;87.25
75231;BME280;63814;50.118;8.714;2022-11-30T10:19:40;100854.03;;;7.41;87.82
75231;BME280;63814;50.118;8.714;2022-11-30T10:22:17;100860.38;;;7.34;88.14
75231;BME280;63814;50.118;8.714;2022-11-30T10:25:01;100860.44;;;7.31;88.51
75231;BME280;63814;50.118;8.714;2022-11-30T10:27:43;100852.03;;;7.22;88.44
75231;BME280;63814;50.118;8.714;2022-11-30T10:30:16;100856.47;;;7.20;88.52
75231;BME280;63814;50.118;8.714;2022-11-30T10:32:44;100862.63;;;7.18;88.90
75231;BME280;63814;50.118;8.714;2022-11-30T10:35:17;100852.16;;;7.19;88.53
75231;BME280;63814;50.118;8.714;2022-11-30T10:37:47;100853.09;;;7.17;88.82
75231;BME280;63814;50.118;8.714;2022-11-30T10:40:19;100850.44;;;7.18;88.63
75231;BME280;63814;50.118;8.714;2022-11-30T10:42:53;100852.16;;;7.19;87.68
75231;BME280;63814;50.118;8.714;2022-11-30T10:45:26;100844.47;;;7.15;87.91
75231;BME280;63814;50.118;8.714;2022-11-30T10:47:59;100840.91;;;7.17;87.43
75231;BME280;63814;50.118;8.714;2022-11-30T10:50:29;100846.19;;;7.16;87.23
75231;BME280;63814;50.118;8.714;2022-11-30T10:52:58;100747.28;;;6.57;87.18
75231;BME280;63814;50.118;8.714;2022-11-30T10:55:27;100835.84;;;7.13;87.32
75231;BME280;63814;50.118;8.714;2022-11-30T10:57:59;100836.59;;;7.16;86.80
75231;BME280;63814;50.118;8.714;2022-11-30T11:00:28;100839.16;;;7.18;86.12
75231;BME280;63814;50.118;8.714;2022-11-30T11:02:54;100847.41;;;7.04;85.90
75231;BME280;63814;50.118;8.714;2022-11-30T11:05:23;100841.19;;;6.81;84.91
75231;BME280;63814;50.118;8.714;2022-11-30T11:07:56;100846.78;;;6.97;84.92
75231;BME280;63814;50.118;8.714;2022-11-30T11:10:28;100841.59;;;6.95;84.88
75231;BME280;63814;50.118;8.714;2022-11-30T11:12:56;100827.78;;;6.93;85.58
75231;BME280;63814;50.118;8.714;2022-11-30T11:15:25;100837.47;;;6.90;84.26
75231;BME280;63814;50.118;8.714;2022-11-30T11:17:53;100825.38;;;6.87;85.29
75231;BME280;63814;50.118;8.714;2022-11-30T11:20:31;100832.09;;;6.94;85.72
75231;BME280;63814;50.118;8.714;2022-11-30T11:22:58;100803.31;;;6.71;84.85
75231;BME280;63814;50.118;8.714;2022-11-30T11:25:30;100826.22;;;6.88;85.27
75231;BME280;63814;50.118;8.714;2022-11-30T11:28:03;100814.16;;;6.85;85.02
75231;BME280;63814;50.118;8.714;2022-11-30T11:30:34;100826.63;;;7.02;85.99
75231;BME280;63814;50.118;8.714;2022-11-30T11:33:20;100828.09;;;7.11;85.45
75231;BME280;63814;50.118;8.714;2022-11-30T11:35:48;100826.47;;;7.07;84.69
75231;BME280;63814;50.118;8.714;2022-11-30T11:38:20;100841.91;;;7.13;86.15
75231;BME280;63814;50.118;8.714;2022-11-30T11:41:01;100832.03;;;7.23;85.77
75231;BME280;63814;50.118;8.714;2022-11-30T11:43:30;100825.91;;;7.24;85.83
75231;BME280;63814;50.118;8.714;2022-11-30T11:46:00;100817.88;;;7.30;86.59
75231;BME280;63814;50.118;8.714;2022-11-30T11:48:37;100824.59;;;7.38;85.75
75231;BME280;63814;50.118;8.714;2022-11-30T11:51:06;100824.59;;;7.38;86.00
75231;BME280;63814;50.118;8.714;2022-11-30T11:53:41;100825.25;;;7.43;85.86
75231;BME280;63814;50.118;8.714;2022-11-30T11:56:13;100799.44;;;7.35;85.08
75231;BME280;63814;50.118;8.714;2022-11-30T11:58:48;100822.50;;;7.47;85.88
75231;BME280;63814;50.118;8.714;2022-11-30T12:01:24;100822.38;;;7.50;86.33
75231;BME280;63814;50.118;8.714;2022-11-30T12:04:04;100822.97;;;7.59;86.04
75231;BME280;63814;50.118;8.714;2022-11-30T12:06:32;100817.66;;;7.62;85.60
75231;BME280;63814;50.118;8.714;2022-11-30T12:09:05;100822.88;;;7.62;85.58
75231;BME280;63814;50.118;8.714;2022-11-30T12:11:38;100812.47;;;7.60;85.60
75231;BME280;63814;50.118;8.714;2022-11-30T12:14:10;100822.88;;;7.62;85.59
75231;BME280;63814;50.118;8.714;2022-11-30T12:16:46;100823.91;;;7.56;85.14
75231;BME280;63814;50.118;8.714;2022-11-30T12:19:19;100829.13;;;7.56;84.68
75231;BME280;63814;50.118;8.714;2022-11-30T12:21:56;100828.31;;;7.56;85.03
75231;BME280;63814;50.118;8.714;2022-11-30T12:24:54;100819.66;;;7.54;85.55
75231;BME280;63814;50.118;8.714;2022-11-30T12:27:24;100828.88;;;7.64;85.27
75231;BME280;63814;50.118;8.714;2022-11-30T12:30:02;100825.34;;;7.65;85.49
75231;BME280;63814;50.118;8.714;2022-11-30T12:32:48;100828.75;;;7.67;84.85
75231;BME280;63814;50.118;8.714;2022-11-30T12:35:28;100824.28;;;7.71;84.50
75231;BME280;63814;50.118;8.714;2022-11-30T12:38:06;100822.75;;;7.65;84.06
75231;BME280;63814;50.118;8.714;2022-11-30T12:40:42;100821.78;;;7.68;83.78
75231;BME280;63814;50.118;8.714;2022-11-30T12:43:18;100816.78;;;7.61;84.44
75231;BME280;63814;50.118;8.714;2022-11-30T12:45:56;100829.88;;;7.60;84.83
75231;BME280;63814;50.118;8.714;2022-11-30T12:48:29;100829.06;;;7.59;85.33
75231;BME280;63814;50.118;8.714;2022-11-30T12:51:08;100825.75;;;7.54;85.17
75231;BME280;63814;50.118;8.714;2022-11-30T12:53:45;100832.78;;;7.52;85.47
75231;BME280;63814;50.118;8.714;2022-11-30T12:56:23;100834.66;;;7.48;85.34
75231;BME280;63814;50.118;8.714;2022-11-30T12:58:57;100830.22;;;7.50;85.53
75231;BME280;63814;50.118;8.714;2022-11-30T13:01:42;100830.34;;;7.47;85.22
75231;BME280;63814;50.118;8.714;2022-11-30T13:04:15;100829.59;;;7.44;85.63
75231;BME280;63814;50.118;8.714;2022-11-30T13:06:45;100830.44;;;7.44;86.30
75231;BME280;63814;50.118;8.714;2022-11-30T13:09:16;100830.34;;;7.47;85.49
75231;BME280;63814;50.118;8.714;2022-11-30T13:11:49;100816.59;;;7.42;85.41